Tropical Cyclones
[Index]
Main Index Home Page Stock Weather Photos Extreme Storms Discussion Storm News and Storm Chasing Reports Tropical Cyclones / Hurricanes / Typhoons Weather Data and Links Wild Fires / Bushfires Weather Observation Techniques Weather Picture Catalogue Tornado Pictures and Reports Stock Video Footage and DVDs for sale
Season 1991-1992 Tropical Cyclone GRAHAM Track Map
Season 1991-1992 Summaries: [BoM-AU] [JTWC-AU] [JTWC-SIO] [JTWC-SPAC] [JTWC-SH]
<<- Previous TC | JTWC 1991-1992 Season | Next TC ->>

click for intensity scale information  Lat/long Grid: Show Hide

 Date Labels: Show Hide

Joint Typhoon Warning Centre Cyclone Data

Name: GRAHAM

01 Dec 1991 00:00 UTC to 12 Dec 1991 12:00 UTC

    date/time    lat    long     hPa   cat  kts
1991-12-01 00    4.4    95.0                  20          
1991-12-01 06    4.6    94.5                  20          
1991-12-01 12    4.9    94.1                  25          
1991-12-01 18    5.1    93.8                  25          
1991-12-02 00    5.3    93.7                  25          
1991-12-02 06    5.5    93.6                  25          
1991-12-02 12    5.7    93.5                  30          
1991-12-02 18    6.1    93.3                  35          
1991-12-03 00    6.5    93.1            1     40          
1991-12-03 06    6.9    92.9            1     45          
1991-12-03 12    7.2    92.8            1     50          
1991-12-03 18    7.5    92.7            2     55          
1991-12-04 00    7.9    92.9            2     65          
1991-12-04 06    8.2    93.1            2     70          
1991-12-04 12    8.5    93.5            3     75          
1991-12-04 18    8.9    94.1            3     85          
1991-12-05 00    9.2    94.7            3     95          
1991-12-05 06    9.6    95.4            4    105          
1991-12-05 12   10.0    96.1            4    110          
1991-12-05 18   10.6    96.9            4    115          
1991-12-06 00   11.1    97.7            4    120          
1991-12-06 06   11.6    98.4            4    120          
1991-12-06 12   12.0    98.9            4    105          
1991-12-06 18   12.4    99.4            3     95          
1991-12-07 00   12.6   100.0            3     85          
1991-12-07 06   12.6   100.7            3     75          
1991-12-07 12   12.5   101.4            2     65          
1991-12-07 18   12.4   102.2            2     55          
1991-12-08 00   12.6   102.8            1     45          
1991-12-08 06   13.0   103.2            1     40          
1991-12-08 12   13.3   103.5                  35          
1991-12-08 18   13.7   103.7                  35          
1991-12-09 00   13.9   103.8                  35          
1991-12-09 06   14.2   104.0                  35          
1991-12-09 12   14.4   104.3                  30          
1991-12-09 18   14.5   104.6                  30          
1991-12-10 00   14.7   104.8                  30          
1991-12-10 06   15.0   104.8                  25          
1991-12-10 12   15.2   104.6                  25          
1991-12-10 18   15.2   104.3                  20          
1991-12-11 00   15.2   103.8                  20          
1991-12-11 06   15.1   103.2                  20          
1991-12-11 12   14.9   102.5                  20          
1991-12-11 18   14.7   101.8                  20          
1991-12-12 00   14.5   101.1                  20          
1991-12-12 06   14.3   100.4                  20          
1991-12-12 12   14.2    99.7                  20          
Winds are 1-min average.

Tropical cyclone tracks developed by Michael Bath using data from the Joint Typhoon Warning Centre Best Tracks and Google Maps.


[Australian Severe Weather index] [Copyright Notice] [Email Contacts] [Search This Site] [Privacy Policy]
Document: tropical_cyclone_graham.htm Updated: 18 September 2016